Richwood, Ohio
Current Conditions -  °F | °C
As of 9:18 AM on Saturday 22 Nov 2014 (Local Time) from KDLZ Reporting Station
Drizzle Drizzle  
Wind Chill: 24°   Ceiling: 5500
Heat Index: 32°   Visibility: 7mi
Dew Point: 28°   Wind: 9mph
Humidity: 87%   Direction: 190°S
Pressure: 30.25"   Gusts: NA
Location:  40.43°N, 83.3°W
Report Text: KDLZ 221418Z AUTO 19008KT 7SM -DZ SCT021 BKN055 OVC075 00/M02 A3025 RMK AO2
Loading
Personal Weather Stations






























Interactive Weather Map New forecast layout! Learn more

10-Day Weather Forecast

Advertisements
Track Severe Weather on mobile